createdAt,value
2019-04-03T00:08:25.636Z,3.70
2019-04-03T00:23:25.687Z,3.40
2019-04-03T00:38:25.757Z,4.10
2019-04-03T00:53:27.465Z,3.90
2019-04-03T01:08:29.347Z,2.80
2019-04-03T01:23:29.972Z,3.20
2019-04-03T01:38:30.093Z,3.60
2019-04-03T01:53:32.176Z,2.50
2019-04-03T02:08:32.236Z,4.10
2019-04-03T02:23:32.384Z,3.00
2019-04-03T02:38:32.424Z,3.00
2019-04-03T02:53:32.498Z,3.70
2019-04-03T03:08:32.568Z,3.50
2019-04-03T03:23:32.646Z,3.00
2019-04-03T03:38:32.744Z,3.30
2019-04-03T03:53:32.819Z,3.80
2019-04-03T04:08:33.374Z,4.10
2019-04-03T04:23:32.992Z,3.30
2019-04-03T04:38:33.069Z,3.50
2019-04-03T04:53:33.135Z,3.60
2019-04-03T05:08:34.068Z,6.50
2019-04-03T05:23:33.857Z,3.00
2019-04-03T05:38:33.925Z,3.40
2019-04-03T05:53:36.692Z,4.00
2019-04-03T06:08:37.108Z,5.10
2019-04-03T06:23:37.161Z,5.00
2019-04-03T06:38:37.237Z,4.70
2019-04-03T06:53:37.308Z,7.10
2019-04-03T07:08:40.115Z,5.40
2019-04-03T07:23:40.736Z,5.90
2019-04-03T07:38:41.127Z,26.30
2019-04-03T07:53:40.939Z,13.10
2019-04-03T08:08:41.055Z,16.90
2019-04-03T08:23:42.387Z,14.20
2019-04-03T08:38:44.099Z,14.30
2019-04-03T08:53:45.537Z,14.90
2019-04-03T09:08:45.618Z,14.30
2019-04-03T09:23:45.681Z,10.90
2019-04-03T09:38:46.019Z,10.70
2019-04-03T09:53:45.862Z,11.10
2019-04-03T10:08:45.927Z,12.70
2019-04-03T10:23:46.068Z,10.90
2019-04-03T10:38:48.304Z,11.30
2019-04-03T10:53:51.518Z,16.30
2019-04-03T11:08:52.294Z,14.80
2019-04-03T11:23:52.597Z,8.80
2019-04-03T11:38:52.550Z,11.40
2019-04-03T11:53:52.748Z,8.20
2019-04-03T12:08:52.973Z,10.50
2019-04-03T12:23:53.086Z,7.80
2019-04-03T12:38:55.382Z,8.00
2019-04-03T12:53:56.268Z,39.00
2019-04-03T13:08:56.350Z,30.70
2019-04-03T13:23:56.459Z,21.70
2019-04-03T13:38:58.237Z,17.30
2019-04-03T13:54:01.080Z,19.40
2019-04-03T14:09:00.737Z,16.60
2019-04-03T14:24:00.767Z,15.70
2019-04-03T14:39:02.691Z,14.40
2019-04-03T14:54:03.927Z,13.30
2019-04-03T15:09:03.996Z,14.60
2019-04-03T15:24:04.252Z,12.40
2019-04-03T15:39:04.146Z,12.50
2019-04-03T15:54:04.213Z,12.70
2019-04-03T16:09:04.287Z,12.00
2019-04-03T16:24:07.810Z,12.40
2019-04-03T16:39:09.443Z,11.60
2019-04-03T16:54:11.858Z,12.90
2019-04-03T17:09:13.097Z,17.20
2019-04-03T17:24:13.507Z,29.50
2019-04-03T17:39:14.565Z,24.30
2019-04-03T17:54:14.311Z,22.10
2019-04-03T18:09:14.395Z,17.30
2019-04-03T18:24:14.465Z,12.80
2019-04-03T18:39:14.553Z,13.00
2019-04-03T18:54:14.623Z,13.60
2019-04-03T19:09:14.703Z,10.50
2019-04-03T19:24:14.775Z,10.40
2019-04-03T19:39:14.854Z,9.70
2019-04-03T19:54:16.753Z,9.40
2019-04-03T20:09:17.819Z,9.30
2019-04-03T20:24:18.074Z,8.40
2019-04-03T20:39:18.181Z,11.60
2019-04-03T20:54:19.200Z,9.50
2019-04-03T21:09:21.336Z,8.00
2019-04-03T21:24:21.460Z,8.60
2019-04-03T21:39:21.527Z,8.30
2019-04-03T21:54:21.617Z,7.70
2019-04-03T22:09:21.726Z,8.20
2019-04-03T22:24:21.832Z,7.70
2019-04-03T22:39:21.908Z,7.00
2019-04-03T22:54:22.056Z,7.50
2019-04-03T23:09:24.684Z,7.00
2019-04-03T23:24:28.659Z,7.40
2019-04-03T23:39:28.441Z,7.00
2019-04-03T23:54:28.513Z,7.40
